Time;durP1;ratioP1;P1;durP2;ratioP2;P2;SDS_P1;SDS_P2;PMS_P1;PMS_P2;Temp;Humidity;BMP_temperature;BMP_pressure;BME280_temperature;BME280_humidity;BME280_pressure;Samples;Min_cycle;Max_cycle;Signal;HPM_P1;HPM_P2
2021/11/13 00:01:50;;;;;;;172.63;74.15;;;;;;;4.25;70.93;100783.66;5071948;28;20794;-21
2021/11/13 00:04:15;;;;;;;49.10;28.08;;;;;;;4.11;69.25;100787.72;5071159;28;20041;-22
2021/11/13 00:06:41;;;;;;;50.60;26.52;;;;;;;3.47;71.04;100762.66;5053699;28;20036;-21
2021/11/13 00:09:06;;;;;;;41.83;23.38;;;;;;;2.62;73.29;100784.19;5071932;28;20039;-21
2021/11/13 00:11:32;;;;;;;36.90;23.55;;;;;;;2.81;72.70;100783.22;5069730;28;20111;-22
2021/11/13 00:14:01;;;;;;;38.72;21.75;;;;;;;2.36;73.82;100776.19;5071288;28;20068;-20
2021/11/13 00:16:27;;;;;;;33.15;19.40;;;;;;;2.00;76.04;100784.84;5053798;28;20044;-21
2021/11/13 00:18:53;;;;;;;32.00;19.42;;;;;;;2.16;75.28;100778.09;5071332;28;20025;-21
2021/11/13 00:21:18;;;;;;;45.15;26.90;;;;;;;1.97;75.91;100769.31;5070848;28;20090;-21
2021/11/13 00:23:44;;;;;;;35.08;21.25;;;;;;;1.94;76.11;100751.22;5052998;28;20473;-21
2021/11/13 00:26:09;;;;;;;38.40;21.70;;;;;;;2.12;75.06;100756.50;5069225;28;20036;-21
2021/11/13 00:28:35;;;;;;;37.22;22.67;;;;;;;2.58;74.19;100788.13;5053367;28;20029;-21
2021/11/13 00:31:00;;;;;;;37.85;21.95;;;;;;;2.76;72.84;100770.50;5070687;28;20040;-21
2021/11/13 00:33:25;;;;;;;34.85;22.10;;;;;;;2.54;72.84;100777.03;5070883;28;20028;-21
2021/11/13 00:35:51;;;;;;;36.13;20.98;;;;;;;2.30;73.93;100782.88;5071010;28;20028;-22
2021/11/13 00:38:16;;;;;;;37.15;22.42;;;;;;;2.73;73.42;100783.16;5070558;28;20036;-22
2021/11/13 00:40:42;;;;;;;34.30;21.13;;;;;;;2.22;74.26;100786.22;5052780;28;20040;-22
2021/11/13 00:43:07;;;;;;;38.35;22.83;;;;;;;2.40;73.60;100777.56;5070729;28;20044;-21
2021/11/13 00:45:33;;;;;;;36.05;21.42;;;;;;;2.45;73.93;100783.19;5070574;28;20469;-21
2021/11/13 00:47:58;;;;;;;38.10;23.25;;;;;;;2.50;73.44;100783.59;5070674;28;20412;-21
2021/11/13 00:50:24;;;;;;;39.60;21.17;;;;;;;2.75;71.78;100779.38;5070352;28;20029;-21
2021/11/13 00:52:49;;;;;;;36.60;22.20;;;;;;;2.67;72.44;100766.13;5070094;28;20036;-21
2021/11/13 00:55:16;;;;;;;37.63;21.48;;;;;;;3.07;71.35;100778.03;5052481;28;20066;-21
2021/11/13 00:57:42;;;;;;;37.88;22.58;;;;;;;3.40;69.91;100780.91;5070648;28;20051;-21
2021/11/13 01:00:08;;;;;;;33.75;20.50;;;;;;;2.99;71.12;100778.78;5052128;28;20037;-22
2021/11/13 01:02:34;;;;;;;35.28;20.13;;;;;;;2.87;72.06;100776.53;5070150;28;20032;-21
2021/11/13 01:04:59;;;;;;;33.88;19.90;;;;;;;3.11;71.13;100768.84;5070629;28;20450;-21
2021/11/13 01:07:25;;;;;;;32.70;19.92;;;;;;;3.11;71.77;100779.38;5068988;28;20039;-21
2021/11/13 01:09:50;;;;;;;34.53;20.52;;;;;;;2.71;72.24;100764.84;5070135;28;20024;-21
2021/11/13 01:12:16;;;;;;;32.03;19.25;;;;;;;2.46;72.24;100778.78;5069907;28;20048;-20
2021/11/13 01:14:41;;;;;;;39.65;20.23;;;;;;;2.83;72.13;100780.44;5070273;28;20060;-21
2021/11/13 01:17:09;;;;;;;37.45;21.02;;;;;;;3.06;70.71;100781.63;5070105;28;20032;-21
2021/11/13 01:19:35;;;;;;;35.75;22.60;;;;;;;3.03;70.64;100767.94;5070155;28;20025;-21
2021/11/13 01:22:01;;;;;;;36.67;20.58;;;;;;;3.04;71.47;100774.84;5052275;28;20101;-21
2021/11/13 01:24:26;;;;;;;35.05;23.00;;;;;;;2.78;72.31;100781.72;5070178;28;20514;-20
2021/11/13 01:26:52;;;;;;;39.70;23.13;;;;;;;2.53;73.29;100769.28;5069737;28;20036;-21
2021/11/13 01:29:17;;;;;;;35.97;22.42;;;;;;;2.08;75.33;100775.38;5070040;28;20067;-21
2021/11/13 01:31:42;;;;;;;39.35;22.55;;;;;;;2.26;75.33;100762.25;5069880;28;20036;-21
2021/11/13 01:34:08;;;;;;;34.15;21.48;;;;;;;2.70;71.36;100755.31;5069545;28;20174;-22
2021/11/13 01:36:33;;;;;;;38.25;21.75;;;;;;;2.06;73.72;100745.75;5070384;28;20404;-21
2021/11/13 01:38:59;;;;;;;32.20;21.50;;;;;;;2.53;71.49;100758.75;5069536;28;20029;-21
2021/11/13 01:41:25;;;;;;;30.65;20.35;;;;;;;2.76;70.27;100757.34;5069702;28;20024;-21
2021/11/13 01:43:50;;;;;;;35.85;19.52;;;;;;;2.46;71.44;100778.78;5069720;28;20039;-21
2021/11/13 01:46:16;;;;;;;34.60;21.00;;;;;;;2.46;71.93;100784.84;5051360;28;20032;-21
2021/11/13 01:48:41;;;;;;;38.97;22.48;;;;;;;2.26;72.90;100775.41;5069487;28;20040;-21
2021/11/13 01:51:26;;;;;;;33.70;21.85;;;;;;;2.16;73.02;100783.34;5069551;28;20060;-21
2021/11/13 01:53:53;;;;;;;40.33;24.05;;;;;;;2.22;72.61;100777.50;5069868;28;20024;-23
2021/11/13 01:56:20;;;;;;;37.83;20.88;;;;;;;1.87;73.41;100779.06;5068999;28;20496;-22
2021/11/13 01:58:48;;;;;;;39.53;21.98;;;;;;;1.85;73.76;100770.47;5069144;28;20031;-22
2021/11/13 02:01:14;;;;;;;38.40;20.10;;;;;;;1.35;74.81;100778.69;5051926;28;20039;-22
2021/11/13 02:03:39;;;;;;;48.03;21.73;;;;;;;0.90;78.15;100784.50;5068310;28;20040;-22
2021/11/13 02:06:05;;;;;;;62.47;23.92;;;;;;;1.23;77.38;100788.50;5069190;28;20858;-21
2021/11/13 02:08:30;;;;;;;48.55;23.88;;;;;;;0.75;77.94;100766.53;5068822;28;20048;-21
2021/11/13 02:10:56;;;;;;;54.58;22.02;;;;;;;0.87;78.69;100784.78;5069096;28;20040;-21
2021/11/13 02:13:21;;;;;;;47.40;22.67;;;;;;;0.77;78.92;100774.28;5068799;28;20048;-21
2021/11/13 02:15:47;;;;;;;56.60;23.75;;;;;;;1.57;76.36;100773.09;5068931;28;20051;-21
2021/11/13 02:18:12;;;;;;;63.85;22.60;;;;;;;1.69;76.15;100791.31;5068559;28;20032;-21
2021/11/13 02:20:39;;;;;;;51.78;23.42;;;;;;;1.98;74.83;100786.78;5068890;28;20036;-21
2021/11/13 02:23:13;;;;;;;51.95;24.05;;;;;;;1.57;75.47;100782.75;5069080;28;20534;-22
2021/11/13 02:25:38;;;;;;;46.20;21.70;;;;;;;1.38;76.21;100783.63;5068753;28;20032;-21
2021/11/13 02:28:05;;;;;;;50.30;22.08;;;;;;;1.54;76.24;100783.88;5068966;28;20087;-21
2021/11/13 02:30:31;;;;;;;64.80;22.70;;;;;;;1.60;75.44;100767.53;5068674;28;20040;-21
2021/11/13 02:32:57;;;;;;;58.47;21.15;;;;;;;1.70;75.21;100778.03;5068691;28;20025;-21
2021/11/13 02:35:24;;;;;;;40.72;22.75;;;;;;;1.54;76.21;100772.53;5068432;28;20028;-21
2021/11/13 02:37:50;;;;;;;55.05;22.67;;;;;;;1.72;75.01;100780.50;5068724;28;20495;-20
2021/11/13 02:40:15;;;;;;;61.38;21.33;;;;;;;1.81;74.37;100772.56;5068086;28;20036;-22
2021/11/13 02:42:41;;;;;;;53.28;20.60;;;;;;;1.42;74.78;100771.88;5068616;28;20029;-21
2021/11/13 02:45:09;;;;;;;41.75;19.90;;;;;;;1.21;76.13;100785.19;5068462;28;20028;-21
2021/11/13 02:47:35;;;;;;;43.88;21.67;;;;;;;0.99;77.65;100783.69;5068514;28;20778;-21
2021/11/13 02:50:00;;;;;;;50.88;22.08;;;;;;;1.67;75.60;100785.34;5050602;28;20036;-21
2021/11/13 02:52:26;;;;;;;37.58;21.52;;;;;;;1.97;74.13;100771.94;5033889;28;20411;-21
2021/11/13 02:54:52;;;;;;;35.88;21.10;;;;;;;1.68;74.81;100779.16;5068379;28;20036;-21
2021/11/13 02:57:17;;;;;;;42.05;22.08;;;;;;;1.60;75.59;100761.44;5068349;28;20029;-21
2021/11/13 02:59:48;;;;;;;38.20;21.40;;;;;;;1.51;76.34;100781.53;5068275;28;20028;-21
2021/11/13 03:02:13;;;;;;;34.97;21.23;;;;;;;1.85;75.10;100780.19;5050318;28;20032;-20
2021/11/13 03:04:39;;;;;;;52.70;24.13;;;;;;;1.94;74.38;100774.03;5050453;28;20031;-21
2021/11/13 03:07:06;;;;;;;41.40;22.83;;;;;;;1.98;73.26;100765.72;5068428;28;20038;-21
2021/11/13 03:09:32;;;;;;;47.97;26.58;;;;;;;1.92;74.31;100782.09;5068112;28;20507;-21
2021/11/13 03:11:57;;;;;;;38.70;25.70;;;;;;;2.01;74.27;100786.47;5068001;28;20067;-22
2021/11/13 03:14:23;;;;;;;40.80;23.70;;;;;;;1.99;74.43;100783.16;5067511;28;20500;-21
2021/11/13 03:16:48;;;;;;;42.38;24.55;;;;;;;1.58;75.58;100777.34;5050336;28;20040;-21
2021/11/13 03:19:14;;;;;;;35.53;22.60;;;;;;;1.50;76.09;100793.00;5068347;28;20031;-21
2021/11/13 03:21:40;;;;;;;37.78;24.20;;;;;;;1.93;74.81;100773.22;5068162;28;20028;-21
2021/11/13 03:24:06;;;;;;;39.78;26.55;;;;;;;2.00;74.58;100769.03;5050010;28;20036;-21
2021/11/13 03:26:31;;;;;;;38.20;25.05;;;;;;;2.48;72.87;100782.91;5067885;28;20534;-21
2021/11/13 03:29:01;;;;;;;36.08;23.02;;;;;;;2.24;73.91;100775.56;5068213;28;20029;-21
2021/11/13 03:31:28;;;;;;;38.33;22.80;;;;;;;2.04;74.29;100800.31;5050174;28;20094;-21
2021/11/13 03:33:54;;;;;;;37.47;24.92;;;;;;;1.92;75.57;100797.88;5050332;28;20064;-21
2021/11/13 03:36:21;;;;;;;35.13;23.33;;;;;;;2.18;74.31;100798.03;5068083;28;20064;-21
2021/11/13 03:38:48;;;;;;;38.30;24.38;;;;;;;1.55;76.36;100775.03;5067849;28;20028;-21
2021/11/13 03:41:14;;;;;;;35.60;24.25;;;;;;;1.91;75.55;100790.94;5068095;28;20032;-21
2021/11/13 03:43:39;;;;;;;35.45;23.30;;;;;;;2.33;74.02;100795.75;5049938;28;20055;-21
2021/11/13 03:46:05;;;;;;;38.15;23.80;;;;;;;2.13;74.55;100805.53;5068025;28;20033;-21
2021/11/13 03:48:31;;;;;;;38.70;22.48;;;;;;;1.99;75.46;100812.09;5067753;28;20024;-21
2021/11/13 03:50:56;;;;;;;41.65;24.65;;;;;;;2.12;75.37;100793.34;5067859;28;20036;-21
2021/11/13 03:53:22;;;;;;;39.33;24.20;;;;;;;2.15;75.21;100792.25;5068053;28;20090;-21
2021/11/13 03:55:47;;;;;;;41.65;24.73;;;;;;;2.00;75.02;100792.72;5067705;28;20032;-21
2021/11/13 03:58:13;;;;;;;42.30;25.63;;;;;;;2.06;75.47;100799.19;5049649;28;20051;-22
2021/11/13 04:00:38;;;;;;;45.45;29.75;;;;;;;2.14;75.39;100782.69;5067585;28;20420;-21
2021/11/13 04:03:04;;;;;;;41.58;25.23;;;;;;;1.95;75.43;100799.38;5067836;28;20040;-21
2021/11/13 04:05:29;;;;;;;39.25;25.45;;;;;;;1.81;77.27;100801.50;5067649;28;20522;-21
2021/11/13 04:07:55;;;;;;;36.60;25.55;;;;;;;2.11;76.95;100804.84;5049555;28;20416;-21
2021/11/13 04:10:21;;;;;;;38.75;25.23;;;;;;;2.22;75.97;100801.19;5067672;28;20025;-21
2021/11/13 04:12:46;;;;;;;43.83;28.30;;;;;;;2.04;77.27;100797.69;5067356;28;20028;-21
2021/11/13 04:15:12;;;;;;;271.00;106.85;;;;;;;2.18;77.04;100819.06;5067695;28;20039;-21
2021/11/13 04:17:38;;;;;;;112.90;53.75;;;;;;;1.54;78.82;100804.91;5067737;28;20033;-21
2021/11/13 04:20:05;;;;;;;39.63;26.15;;;;;;;1.71;78.98;100819.09;5067319;28;20399;-21
2021/11/13 04:22:30;;;;;;;36.90;23.05;;;;;;;1.59;79.90;100820.25;5067170;28;20067;-20
2021/11/13 04:24:56;;;;;;;33.17;23.67;;;;;;;1.60;80.36;100829.81;5050061;28;20035;-21
2021/11/13 04:27:21;;;;;;;53.80;34.70;;;;;;;1.86;79.24;100832.66;5069422;28;20111;-21
2021/11/13 04:29:47;;;;;;;50.65;33.60;;;;;;;2.10;78.08;100831.31;5071438;28;20055;-21
2021/11/13 04:32:14;;;;;;;43.67;28.88;;;;;;;2.03;78.94;100835.50;5052913;28;20029;-21
2021/11/13 04:35:02;;;;;;;36.95;23.73;;;;;;;1.86;79.17;100811.59;5071073;28;20119;-20
2021/11/13 04:37:25;;;;;;;36.88;24.80;;;;;;;2.37;77.53;100815.53;5070482;28;20550;-21
2021/11/13 04:39:51;;;;;;;33.45;23.63;;;;;;;2.58;76.61;100824.97;5070758;28;20050;-21
2021/11/13 04:42:16;;;;;;;39.25;27.42;;;;;;;2.41;77.97;100827.44;5070632;28;20033;-21
2021/11/13 04:44:42;;;;;;;70.88;48.40;;;;;;;2.52;78.05;100826.38;5070767;28;20050;-20
2021/11/13 04:47:08;;;;;;;44.92;29.17;;;;;;;2.80;76.77;100829.00;5070729;28;20113;-21
2021/11/13 04:49:34;;;;;;;43.65;29.75;;;;;;;2.68;77.67;100820.47;5070769;28;20498;-22
2021/11/13 04:52:00;;;;;;;42.35;29.27;;;;;;;2.87;76.42;100823.94;5070984;28;20806;-21
2021/11/13 04:54:25;;;;;;;38.83;28.88;;;;;;;3.04;76.31;100831.00;5052347;28;20039;-21
2021/11/13 04:56:53;;;;;;;55.90;35.83;;;;;;;2.70;78.18;100831.69;5070483;28;20037;-20
2021/11/13 04:59:18;;;;;;;46.90;29.40;;;;;;;2.51;79.03;100829.97;5070458;28;20037;-21
2021/11/13 05:01:44;;;;;;;52.65;30.63;;;;;;;2.57;79.02;100836.47;5070872;28;20029;-21
2021/11/13 05:04:09;;;;;;;47.45;30.63;;;;;;;2.94;77.63;100822.34;5070114;28;20036;-21
2021/11/13 05:06:35;;;;;;;51.97;32.42;;;;;;;2.99;77.61;100838.56;5070290;28;20035;-21
2021/11/13 05:09:00;;;;;;;51.70;31.98;;;;;;;2.89;78.56;100835.16;5052487;28;20481;-21
2021/11/13 05:11:25;;;;;;;51.72;33.00;;;;;;;3.05;77.93;100837.13;5070180;28;20036;-20
2021/11/13 05:13:51;;;;;;;56.65;36.38;;;;;;;3.45;76.38;100828.72;5069974;28;20056;-21
2021/11/13 05:16:16;;;;;;;52.65;31.42;;;;;;;3.47;76.53;100842.56;5070181;28;20037;-22
2021/11/13 05:18:42;;;;;;;50.22;31.20;;;;;;;3.53;76.10;100836.69;5070357;28;20025;-21
2021/11/13 05:21:07;;;;;;;48.28;31.90;;;;;;;3.74;76.94;100849.53;5070263;28;20021;-21
2021/11/13 05:23:33;;;;;;;48.50;31.30;;;;;;;3.77;76.93;100854.50;5070177;28;20040;-21
2021/11/13 05:25:58;;;;;;;50.28;32.60;;;;;;;3.63;77.57;100853.25;5051769;28;20040;-21
2021/11/13 05:28:24;;;;;;;56.63;34.58;;;;;;;3.47;77.97;100853.13;5070243;28;20400;-21
2021/11/13 05:30:49;;;;;;;59.83;33.55;;;;;;;3.68;77.86;100859.88;5068670;28;20037;-20
2021/11/13 05:33:15;;;;;;;123.68;87.75;;;;;;;3.78;76.73;100866.72;5069922;28;20060;-21
2021/11/13 05:35:40;;;;;;;62.33;41.35;;;;;;;3.53;78.28;100860.41;5069920;28;20020;-20
2021/11/13 05:38:06;;;;;;;56.38;38.03;;;;;;;3.51;78.48;100849.19;5051554;28;20036;-21
2021/11/13 05:40:31;;;;;;;50.05;32.58;;;;;;;3.36;79.22;100871.84;5069212;28;20036;-21
2021/11/13 05:42:57;;;;;;;54.05;34.72;;;;;;;3.49;79.70;100855.63;5069863;28;20477;-20
2021/11/13 05:45:22;;;;;;;52.15;32.80;;;;;;;3.98;77.64;100875.25;5051746;28;20032;-20
2021/11/13 05:47:48;;;;;;;47.55;31.35;;;;;;;3.93;77.80;100861.69;5069460;28;20029;-20
2021/11/13 05:50:15;;;;;;;48.88;30.52;;;;;;;4.16;77.20;100877.00;5069512;28;20020;-21
2021/11/13 05:52:41;;;;;;;47.90;30.52;;;;;;;4.36;76.40;100882.88;5069576;28;20081;-20
2021/11/13 05:55:07;;;;;;;58.78;36.38;;;;;;;4.51;76.69;100885.75;5069214;28;20040;-21
2021/11/13 05:57:32;;;;;;;54.13;33.35;;;;;;;4.58;76.54;100892.06;5069460;28;20051;-21
2021/11/13 05:59:58;;;;;;;49.42;32.13;;;;;;;4.49;75.62;100882.44;5069193;28;20027;-21
2021/11/13 06:02:23;;;;;;;55.42;34.22;;;;;;;4.38;76.65;100889.66;5069006;28;20408;-21
2021/11/13 06:04:49;;;;;;;53.65;34.60;;;;;;;4.27;76.57;100876.75;5051595;28;20114;-21
2021/11/13 06:07:15;;;;;;;55.63;34.95;;;;;;;4.43;77.42;100894.44;5069376;28;20233;-22
2021/11/13 06:09:41;;;;;;;65.75;36.60;;;;;;;4.51;76.68;100888.38;5069229;28;20955;-21
2021/11/13 06:12:06;;;;;;;64.18;36.47;;;;;;;4.72;75.77;100901.16;5068967;28;20044;-21
2021/11/13 06:14:32;;;;;;;54.67;33.50;;;;;;;4.99;75.08;100903.56;5069196;28;20136;-21
2021/11/13 06:16:57;;;;;;;56.38;33.03;;;;;;;4.98;74.82;100890.50;5069064;28;20471;-21
2021/11/13 06:19:23;;;;;;;52.45;33.90;;;;;;;4.83;75.55;100903.53;5068958;28;20032;-20
2021/11/13 06:21:49;;;;;;;46.33;33.08;;;;;;;4.89;74.85;100897.59;5068972;28;20547;-21
2021/11/13 06:24:14;;;;;;;54.30;34.88;;;;;;;4.97;75.75;100883.59;5068668;28;20029;-21
2021/11/13 06:26:40;;;;;;;66.97;36.63;;;;;;;4.97;75.06;100900.25;5068808;28;20032;-21
2021/11/13 06:29:06;;;;;;;50.78;34.20;;;;;;;4.97;76.51;100902.09;5051056;28;20032;-22
2021/11/13 06:31:31;;;;;;;49.30;33.70;;;;;;;4.98;76.40;100907.19;5068511;28;20551;-21
2021/11/13 06:33:57;;;;;;;57.40;37.72;;;;;;;5.39;74.86;100909.06;5068919;28;20028;-21
2021/11/13 06:36:22;;;;;;;56.08;38.92;;;;;;;5.33;75.37;100904.44;5050664;28;20029;-21
2021/11/13 06:38:48;;;;;;;55.25;38.40;;;;;;;5.28;76.12;100906.78;5068525;28;20526;-21
2021/11/13 06:41:13;;;;;;;48.90;32.42;;;;;;;5.57;74.63;100915.03;5050525;28;20439;-21
2021/11/13 06:43:39;;;;;;;47.47;33.17;;;;;;;5.30;74.85;100884.44;5068837;28;20051;-21
2021/11/13 06:46:04;;;;;;;48.63;32.03;;;;;;;5.14;75.79;100922.25;5068498;28;20098;-21
2021/11/13 06:48:29;;;;;;;49.20;30.38;;;;;;;4.61;76.60;100915.50;5068247;28;20400;-22
2021/11/13 06:50:55;;;;;;;51.03;33.22;;;;;;;4.66;77.77;100918.50;5068389;28;20031;-21
2021/11/13 06:53:20;;;;;;;57.22;36.47;;;;;;;4.70;77.38;100925.13;5068477;28;20036;-21
2021/11/13 06:55:47;;;;;;;57.03;36.03;;;;;;;4.35;78.17;100916.38;5050522;28;20028;-21
2021/11/13 06:58:12;;;;;;;61.55;39.42;;;;;;;4.33;78.59;100928.91;5068095;28;20035;-21
2021/11/13 07:00:38;;;;;;;60.95;38.63;;;;;;;4.67;78.19;100925.44;5050195;28;20020;-20
2021/11/13 07:03:04;;;;;;;57.65;37.60;;;;;;;4.55;79.36;100927.53;5068184;28;20044;-21
2021/11/13 07:05:29;;;;;;;56.67;35.38;;;;;;;4.63;78.89;100932.84;5068213;28;20035;-21
2021/11/13 07:07:56;;;;;;;53.65;34.35;;;;;;;4.51;78.81;100925.38;5050247;28;20039;-21
2021/11/13 07:10:21;;;;;;;55.85;35.65;;;;;;;4.93;78.29;100927.19;5050234;28;20028;-21
2021/11/13 07:12:47;;;;;;;51.40;32.78;;;;;;;4.95;79.48;100928.66;5067835;28;20503;-21
2021/11/13 07:15:13;;;;;;;52.22;32.20;;;;;;;5.00;77.88;100918.44;5068155;28;20028;-21
2021/11/13 07:17:38;;;;;;;53.08;32.58;;;;;;;5.01;78.38;100932.50;5068334;28;20499;-21
2021/11/13 07:20:04;;;;;;;49.78;31.90;;;;;;;5.09;77.90;100916.66;5068298;28;20029;-21
2021/11/13 07:22:30;;;;;;;56.75;33.05;;;;;;;5.14;78.10;100922.25;5067895;28;20039;-21
2021/11/13 07:24:55;;;;;;;46.88;31.17;;;;;;;5.38;77.66;100928.59;5068154;28;20857;-21
2021/11/13 07:27:21;;;;;;;46.63;32.22;;;;;;;5.70;75.77;100930.44;5068033;28;20041;-21
2021/11/13 07:30:03;;;;;;;48.88;32.60;;;;;;;5.54;76.42;100904.81;5068190;28;20035;-21
2021/11/13 07:32:29;;;;;;;48.20;32.22;;;;;;;5.85;76.31;100927.94;5067992;28;20520;-21
2021/11/13 07:34:55;;;;;;;40.90;30.50;;;;;;;6.05;74.95;100925.81;5067795;28;20029;-21
2021/11/13 07:37:21;;;;;;;47.15;33.30;;;;;;;6.03;75.18;100919.84;5068503;28;20477;-21
2021/11/13 07:39:46;;;;;;;149.93;107.93;;;;;;;6.02;74.12;100905.78;5067861;28;20403;-20
2021/11/13 07:42:12;;;;;;;183.82;123.72;;;;;;;6.27;74.92;100921.59;5067964;28;20032;-21
2021/11/13 07:44:37;;;;;;;125.50;90.50;;;;;;;6.21;73.90;100909.88;5067772;28;20078;-21
2021/11/13 07:47:03;;;;;;;201.20;135.65;;;;;;;6.20;74.62;100912.69;5067811;28;20040;-21
2021/11/13 07:49:29;;;;;;;130.73;96.95;;;;;;;6.43;74.05;100924.22;5067769;28;20036;-21
2021/11/13 07:51:54;;;;;;;97.88;74.82;;;;;;;6.78;73.05;100922.13;5068104;28;20036;-21
2021/11/13 07:54:20;;;;;;;77.43;61.20;;;;;;;6.18;74.85;100926.09;5067785;28;20036;-21
2021/11/13 07:56:45;;;;;;;64.55;48.80;;;;;;;6.18;75.05;100920.00;5067873;28;20039;-21
2021/11/13 07:59:11;;;;;;;60.72;42.28;;;;;;;6.05;75.63;100915.22;5049442;28;20020;-20
2021/11/13 08:01:37;;;;;;;55.30;41.70;;;;;;;5.93;76.63;100922.66;5068644;28;20028;-21
2021/11/13 08:04:03;;;;;;;45.90;31.20;;;;;;;6.07;76.12;100907.09;5071655;28;20044;-20
2021/11/13 08:06:28;;;;;;;41.03;29.48;;;;;;;6.03;76.28;100927.81;5071110;28;20032;-21
2021/11/13 08:08:54;;;;;;;45.97;31.35;;;;;;;6.25;76.67;100920.94;5071574;28;20032;-20
2021/11/13 08:11:20;;;;;;;45.88;32.10;;;;;;;6.39;75.98;100933.50;5053769;28;20072;-21
2021/11/13 08:13:46;;;;;;;46.88;33.50;;;;;;;6.70;75.17;100932.75;5071020;28;20114;-21
2021/11/13 08:16:12;;;;;;;43.97;30.48;;;;;;;6.62;75.02;100925.66;5053295;28;20083;-20
2021/11/13 08:18:37;;;;;;;40.75;30.15;;;;;;;6.66;75.30;100920.84;5071240;28;20515;-21
2021/11/13 08:21:03;;;;;;;81.00;49.92;;;;;;;6.48;76.16;100931.66;5071186;28;20454;-21
2021/11/13 08:23:28;;;;;;;45.72;33.40;;;;;;;6.89;74.92;100938.63;5053315;28;20123;-21
2021/11/13 08:25:54;;;;;;;63.63;42.85;;;;;;;6.71;75.94;100918.47;5071293;28;20029;-21
2021/11/13 08:28:19;;;;;;;107.03;57.08;;;;;;;7.13;75.49;100935.00;5053011;28;20770;-21
2021/11/13 08:30:45;;;;;;;172.18;81.00;;;;;;;7.47;74.32;100939.94;5071265;28;20093;-21
2021/11/13 08:33:11;;;;;;;44.90;31.23;;;;;;;7.43;73.79;100938.63;5071377;28;20036;-21
2021/11/13 08:35:37;;;;;;;48.33;32.67;;;;;;;7.42;74.40;100944.97;5070703;28;20071;-21
2021/11/13 08:38:03;;;;;;;46.92;31.23;;;;;;;7.49;73.84;100935.28;5053027;28;20151;-21
2021/11/13 08:40:29;;;;;;;44.45;30.23;;;;;;;7.46;73.91;100940.94;5070592;28;20040;-22
2021/11/13 08:42:54;;;;;;;47.60;30.75;;;;;;;7.45;74.47;100948.06;5070904;28;20028;-21
2021/11/13 08:45:20;;;;;;;48.85;31.80;;;;;;;7.53;73.48;100936.56;5070802;28;20028;-20
2021/11/13 08:47:45;;;;;;;50.65;32.75;;;;;;;7.56;73.39;100938.88;5070871;28;20028;-21
2021/11/13 08:50:18;;;;;;;52.85;31.88;;;;;;;7.77;72.91;100942.69;5070629;28;20021;-21
2021/11/13 08:52:45;;;;;;;60.55;39.75;;;;;;;7.73;73.38;100939.56;5070632;28;20071;-20
2021/11/13 08:55:12;;;;;;;61.00;35.50;;;;;;;7.93;73.06;100934.59;5052525;28;20028;-21
2021/11/13 08:57:38;;;;;;;50.85;33.42;;;;;;;8.19;71.68;100935.97;5070473;28;20040;-21
2021/11/13 09:00:05;;;;;;;64.55;50.10;;;;;;;7.87;72.40;100911.41;5070445;28;20032;-21
2021/11/13 09:02:30;;;;;;;56.95;34.92;;;;;;;8.09;72.59;100930.13;5069640;28;20035;-21
2021/11/13 09:04:56;;;;;;;53.17;31.77;;;;;;;7.93;73.53;100931.94;5070687;28;20025;-21
2021/11/13 09:07:21;;;;;;;50.95;33.67;;;;;;;8.06;73.10;100923.34;5070261;28;20063;-21
2021/11/13 09:09:47;;;;;;;51.58;32.80;;;;;;;8.10;72.92;100915.84;5070433;28;20031;-21
2021/11/13 09:12:20;;;;;;;50.25;31.85;;;;;;;7.95;73.13;100908.69;5069712;28;20028;-21
2021/11/13 09:14:46;;;;;;;51.05;31.80;;;;;;;7.96;73.99;100920.94;5070249;28;20063;-21
2021/11/13 09:17:11;;;;;;;57.85;34.20;;;;;;;8.03;73.78;100923.72;5052119;28;20028;-21
2021/11/13 09:19:37;;;;;;;52.00;31.13;;;;;;;8.00;73.82;100906.28;5070443;28;20081;-21
2021/11/13 09:22:02;;;;;;;53.03;33.92;;;;;;;7.87;74.22;100911.41;5070076;28;20503;-21
2021/11/13 09:24:28;;;;;;;53.92;35.10;;;;;;;7.90;73.88;100908.38;5069987;28;20035;-21
2021/11/13 09:26:54;;;;;;;48.58;33.85;;;;;;;8.15;73.55;100910.78;5052184;28;20821;-20
2021/11/13 09:29:20;;;;;;;62.13;40.67;;;;;;;8.27;73.14;100905.84;5070330;28;20043;-21
2021/11/13 09:31:45;;;;;;;68.43;35.08;;;;;;;7.85;73.58;100902.78;5051838;28;20024;-22
2021/11/13 09:34:14;;;;;;;57.20;35.95;;;;;;;8.01;74.35;100904.47;5069969;28;20381;-21
2021/11/13 09:36:40;;;;;;;57.45;36.47;;;;;;;8.35;73.05;100909.25;5069843;28;20043;-21
2021/11/13 09:39:06;;;;;;;53.80;36.65;;;;;;;8.44;72.49;100908.19;5069552;28;20037;-21
2021/11/13 09:41:32;;;;;;;58.50;37.45;;;;;;;8.61;71.85;100892.03;5069946;28;20567;-21
2021/11/13 09:43:57;;;;;;;57.55;38.70;;;;;;;8.70;71.80;100896.22;5069799;28;20032;-20
2021/11/13 09:46:22;;;;;;;61.67;40.70;;;;;;;8.45;72.56;100880.56;5069571;28;20036;-21
2021/11/13 09:48:52;;;;;;;67.43;40.40;;;;;;;8.56;72.31;100881.97;5034992;28;20028;-21
2021/11/13 09:51:19;;;;;;;73.88;40.92;;;;;;;8.87;71.52;100885.38;5035410;28;20097;-21
2021/11/13 09:53:44;;;;;;;57.75;38.35;;;;;;;8.95;71.24;100878.13;5069498;28;20396;-21
2021/11/13 09:56:10;;;;;;;108.57;53.72;;;;;;;8.77;71.15;100857.25;5051263;28;20039;-21
2021/11/13 09:58:35;;;;;;;139.73;67.75;;;;;;;8.68;72.33;100871.66;5069529;28;20024;-21
2021/11/13 10:01:01;;;;;;;79.43;47.17;;;;;;;8.84;72.19;100871.44;5069277;28;20033;-21
2021/11/13 10:03:26;;;;;;;82.22;46.08;;;;;;;8.90;72.38;100879.69;5034806;28;20037;-21
2021/11/13 10:05:55;;;;;;;83.45;50.33;;;;;;;9.05;72.55;100883.09;5069839;28;20115;-21
2021/11/13 10:08:20;;;;;;;95.40;55.83;;;;;;;17.59;57.02;100879.00;5069050;28;20045;-21
2021/11/13 10:10:46;;;;;;;64.28;41.15;;;;;;;18.85;52.65;100869.34;5034739;28;20043;-21
2021/11/13 10:13:39;;;;;;;70.68;40.03;;;;;;;17.17;52.30;100865.88;5069003;28;20535;-21
2021/11/13 10:16:05;;;;;;;54.90;37.63;;;;;;;19.12;48.38;100884.75;5060407;28;20041;-20
2021/11/13 10:18:32;;;;;;;58.85;39.08;;;;;;;18.19;45.82;100871.25;5068788;28;20032;-21
2021/11/13 10:21:03;;;;;;;76.68;40.95;;;;;;;18.67;46.25;100875.91;5050952;28;20041;-21
2021/11/13 10:23:28;;;;;;;58.35;39.20;;;;;;;18.23;48.79;100873.19;5068843;28;20074;-20
2021/11/13 10:26:01;;;;;;;66.38;44.85;;;;;;;18.51;47.87;100874.09;5068281;28;20029;-21
2021/11/13 10:28:27;;;;;;;50.17;34.70;;;;;;;16.88;47.67;100846.25;5069014;28;20039;-21
2021/11/13 10:31:17;;;;;;;51.00;37.20;;;;;;;14.52;54.02;100851.47;5069141;28;20318;-21
2021/11/13 10:33:43;;;;;;;64.43;42.45;;;;;;;13.50;58.25;100851.88;5069049;28;20569;-21
2021/11/13 10:36:09;;;;;;;70.00;46.72;;;;;;;13.15;56.54;100835.44;5068248;28;20040;-21
2021/11/13 10:38:35;;;;;;;39.70;28.48;;;;;;;12.02;60.34;100842.97;5068756;28;20027;-21
2021/11/13 10:41:06;;;;;;;43.72;26.88;;;;;;;11.04;64.76;100835.56;5068685;28;20905;-20
2021/11/13 10:43:38;;;;;;;39.70;27.38;;;;;;;10.63;67.17;100833.00;5068519;28;20032;-20
2021/11/13 10:46:09;;;;;;;49.50;31.15;;;;;;;10.44;68.50;100824.75;5068740;28;20086;-21
2021/11/13 10:48:36;;;;;;;40.25;26.85;;;;;;;9.74;70.07;100828.41;5068783;28;20040;-20
2021/11/13 10:51:12;;;;;;;37.45;24.13;;;;;;;9.39;71.79;100820.38;5068167;28;20034;-20
2021/11/13 10:53:38;;;;;;;44.13;28.17;;;;;;;9.48;71.84;100832.56;5050875;28;20027;-21
2021/11/13 10:56:07;;;;;;;83.10;53.03;;;;;;;9.56;71.80;100834.22;5068597;28;20032;-21
2021/11/13 10:58:34;;;;;;;45.70;28.95;;;;;;;9.79;70.28;100816.16;5067531;28;20032;-21
2021/11/13 11:01:00;;;;;;;39.20;25.13;;;;;;;9.00;74.45;100827.81;5068702;28;20043;-21
2021/11/13 11:03:30;;;;;;;43.88;25.25;;;;;;;8.89;75.10;100816.84;5068426;28;20475;-22
2021/11/13 11:05:56;;;;;;;60.65;45.38;;;;;;;8.92;75.96;100814.63;5068328;28;20066;-21
2021/11/13 11:08:32;;;;;;;36.50;21.85;;;;;;;8.93;74.99;100818.09;5067986;28;20123;-21
2021/11/13 11:10:58;;;;;;;39.55;25.58;;;;;;;9.14;74.72;100801.34;5067979;28;20036;-21
2021/11/13 11:13:46;;;;;;;40.80;25.38;;;;;;;9.46;73.87;100815.94;5067921;28;20059;-20